createdAt,value
2022-09-04T00:02:41.027Z,6.40
2022-09-04T00:07:40.994Z,6.80
2022-09-04T00:12:41.039Z,6.80
2022-09-04T00:17:41.030Z,6.70
2022-09-04T00:27:41.036Z,6.60
2022-09-04T00:32:41.054Z,6.60
2022-09-04T00:37:41.017Z,7.00
2022-09-04T00:47:41.054Z,6.50
2022-09-04T00:52:41.034Z,6.50
2022-09-04T00:57:41.054Z,7.40
2022-09-04T01:02:41.056Z,7.40
2022-09-04T01:07:41.046Z,8.20
2022-09-04T01:12:41.027Z,8.20
2022-09-04T01:17:41.055Z,7.50
2022-09-04T01:22:41.030Z,7.50
2022-09-04T01:27:41.070Z,6.80
2022-09-04T01:32:41.053Z,6.80
2022-09-04T01:37:41.197Z,7.10
2022-09-04T01:42:41.078Z,7.10
2022-09-04T01:47:41.077Z,6.80
2022-09-04T01:52:41.062Z,6.80
2022-09-04T01:57:41.103Z,7.10
2022-09-04T02:02:41.113Z,7.10
2022-09-04T02:07:41.059Z,7.10
2022-09-04T02:12:41.083Z,7.10
2022-09-04T02:17:41.136Z,6.30
2022-09-04T02:22:41.061Z,6.30
2022-09-04T02:27:41.069Z,6.20
2022-09-04T02:32:41.193Z,6.20
2022-09-04T02:37:41.065Z,5.80
2022-09-04T02:42:41.111Z,5.80
2022-09-04T02:47:41.068Z,5.90
2022-09-04T02:52:41.100Z,5.90
2022-09-04T02:57:41.113Z,6.40
2022-09-04T03:02:41.117Z,6.40
2022-09-04T03:07:41.074Z,5.90
2022-09-04T03:12:41.157Z,5.90
2022-09-04T03:17:41.084Z,6.10
2022-09-04T03:22:41.218Z,6.10
2022-09-04T03:27:41.166Z,6.60
2022-09-04T03:32:41.122Z,6.60
2022-09-04T03:37:41.159Z,6.60
2022-09-04T03:42:41.152Z,6.60
2022-09-04T03:47:41.169Z,5.80
2022-09-04T03:52:41.098Z,5.80
2022-09-04T03:57:41.137Z,5.40
2022-09-04T04:02:41.145Z,5.40
2022-09-04T04:07:41.141Z,5.80
2022-09-04T04:17:41.151Z,9.40
2022-09-04T04:22:41.111Z,9.40
2022-09-04T04:27:41.177Z,4.90
2022-09-04T04:32:41.136Z,4.90
2022-09-04T04:37:41.174Z,4.90
2022-09-04T04:42:41.118Z,4.90
2022-09-04T04:47:41.174Z,5.10
2022-09-04T04:52:41.138Z,5.10
2022-09-04T04:57:41.192Z,4.60
2022-09-04T05:02:41.294Z,4.60
2022-09-04T05:07:41.148Z,4.70
2022-09-04T05:12:41.356Z,4.70
2022-09-04T05:17:41.169Z,4.50
2022-09-04T05:22:41.166Z,4.50
2022-09-04T05:27:41.176Z,4.60
2022-09-04T05:32:41.161Z,4.60
2022-09-04T05:37:41.187Z,4.30
2022-09-04T05:42:41.146Z,4.30
2022-09-04T05:47:41.184Z,4.30
2022-09-04T05:52:41.158Z,4.30
2022-09-04T05:57:41.199Z,4.40
2022-09-04T06:02:41.276Z,4.40
2022-09-04T06:07:41.168Z,4.60
2022-09-04T06:12:41.218Z,4.60
2022-09-04T06:17:41.216Z,4.30
2022-09-04T06:22:41.188Z,4.30
2022-09-04T06:27:43.295Z,4.60
2022-09-04T06:32:41.197Z,4.60
2022-09-04T06:37:41.232Z,5.10
2022-09-04T06:42:41.176Z,5.10
2022-09-04T06:47:41.211Z,5.10
2022-09-04T06:52:41.195Z,5.10
2022-09-04T06:57:41.233Z,4.10
2022-09-04T07:02:41.394Z,4.10
2022-09-04T07:07:41.225Z,4.20
2022-09-04T07:12:41.191Z,4.20
2022-09-04T07:17:41.236Z,4.20
2022-09-04T07:22:41.226Z,4.20
2022-09-04T07:27:41.233Z,4.40
2022-09-04T07:32:41.486Z,4.40
2022-09-04T07:37:41.211Z,4.40
2022-09-04T07:42:41.237Z,4.40
2022-09-04T07:47:41.238Z,4.30
2022-09-04T07:52:41.222Z,4.30
2022-09-04T07:57:41.247Z,4.50
2022-09-04T08:02:41.240Z,4.50
2022-09-04T08:07:41.255Z,5.10
2022-09-04T08:12:41.250Z,5.10
2022-09-04T08:17:41.263Z,4.50
2022-09-04T08:22:41.268Z,4.50
2022-09-04T08:27:42.968Z,4.20
2022-09-04T08:32:41.271Z,4.20
2022-09-04T08:37:41.242Z,5.00
2022-09-04T08:42:41.261Z,5.00
2022-09-04T08:47:41.288Z,4.80
2022-09-04T08:52:41.284Z,4.80
2022-09-04T08:57:41.282Z,4.80
2022-09-04T09:02:41.335Z,4.80
2022-09-04T09:07:41.291Z,4.90
2022-09-04T09:12:41.920Z,4.90
2022-09-04T09:17:41.314Z,5.00
2022-09-04T09:22:41.267Z,5.00
2022-09-04T09:27:41.290Z,5.30
2022-09-04T09:32:41.300Z,5.30
2022-09-04T09:37:41.304Z,5.70
2022-09-04T09:42:41.303Z,5.70
2022-09-04T09:47:41.297Z,4.30
2022-09-04T09:52:41.278Z,4.30
2022-09-04T09:57:41.309Z,4.70
2022-09-04T10:02:41.362Z,4.70
2022-09-04T10:07:42.496Z,5.40
2022-09-04T10:12:41.322Z,5.40
2022-09-04T10:17:44.688Z,5.30
2022-09-04T10:22:41.286Z,5.30
2022-09-04T10:27:43.950Z,4.70
2022-09-04T10:32:41.293Z,4.70
2022-09-04T10:37:41.352Z,4.50
2022-09-04T10:42:41.325Z,4.50
2022-09-04T10:47:41.351Z,5.10
2022-09-04T10:52:41.307Z,5.10
2022-09-04T10:57:41.348Z,4.90
2022-09-04T11:02:41.398Z,4.90
2022-09-04T11:07:41.348Z,4.70
2022-09-04T11:12:41.348Z,4.70
2022-09-04T11:17:41.368Z,5.80
2022-09-04T11:22:41.321Z,5.80
2022-09-04T11:27:43.365Z,5.20
2022-09-04T11:32:41.329Z,5.20
2022-09-04T11:37:41.357Z,5.50
2022-09-04T11:42:41.423Z,5.50
2022-09-04T11:47:41.367Z,5.30
2022-09-04T11:52:41.329Z,5.30
2022-09-04T11:57:41.358Z,4.90
2022-09-04T12:02:41.480Z,4.90
2022-09-04T12:07:43.392Z,6.20
2022-09-04T12:12:41.341Z,6.20
2022-09-04T12:17:41.392Z,6.90
2022-09-04T12:22:41.383Z,6.90
2022-09-04T12:27:41.382Z,5.70
2022-09-04T12:32:41.381Z,5.70
2022-09-04T12:37:41.387Z,6.10
2022-09-04T12:42:41.385Z,6.10
2022-09-04T12:47:41.383Z,5.90
2022-09-04T12:52:41.378Z,5.90
2022-09-04T12:57:41.614Z,5.60
2022-09-04T13:02:41.398Z,5.60
2022-09-04T13:07:41.402Z,5.50
2022-09-04T13:12:41.408Z,5.50
2022-09-04T13:17:41.401Z,5.70
2022-09-04T13:22:41.425Z,5.70
2022-09-04T13:27:41.493Z,7.30
2022-09-04T13:32:41.384Z,7.30
2022-09-04T13:42:42.533Z,7.00
2022-09-04T13:47:41.401Z,6.30
2022-09-04T13:52:41.434Z,6.30
2022-09-04T13:57:41.422Z,6.30
2022-09-04T14:02:41.423Z,6.30
2022-09-04T14:07:44.761Z,6.80
2022-09-04T14:12:41.475Z,6.80
2022-09-04T14:17:41.413Z,6.10
2022-09-04T14:22:41.453Z,6.10
2022-09-04T14:27:41.466Z,6.70
2022-09-04T14:32:41.460Z,6.70
2022-09-04T14:37:41.413Z,6.60
2022-09-04T14:42:41.464Z,6.60
2022-09-04T14:47:41.415Z,7.90
2022-09-04T14:52:41.461Z,7.90
2022-09-04T14:57:41.490Z,5.80
2022-09-04T15:02:41.478Z,5.80
2022-09-04T15:07:41.482Z,6.80
2022-09-04T15:12:41.491Z,6.80
2022-09-04T15:17:41.516Z,5.90
2022-09-04T15:22:41.462Z,5.90
2022-09-04T15:27:41.465Z,5.70
2022-09-04T15:32:41.483Z,5.70
2022-09-04T15:37:41.482Z,6.40
2022-09-04T15:42:41.484Z,6.40
2022-09-04T15:47:41.487Z,6.20
2022-09-04T15:52:41.522Z,6.20
2022-09-04T15:57:41.510Z,5.90
2022-09-04T16:02:41.559Z,5.90
2022-09-04T16:07:41.526Z,5.80
2022-09-04T16:12:41.514Z,5.80
2022-09-04T16:17:41.502Z,6.10
2022-09-04T16:22:41.501Z,6.10
2022-09-04T16:27:41.593Z,7.90
2022-09-04T16:32:42.458Z,7.90
2022-09-04T16:37:41.543Z,7.00
2022-09-04T16:42:41.533Z,7.00
2022-09-04T16:47:41.555Z,6.30
2022-09-04T16:52:41.524Z,6.30
2022-09-04T16:57:41.522Z,6.30
2022-09-04T17:02:41.653Z,6.50
2022-09-04T17:07:41.501Z,6.50
2022-09-04T17:12:41.540Z,6.20
2022-09-04T17:17:41.496Z,6.20
2022-09-04T17:29:01.317Z,8.00
2022-09-04T17:29:15.597Z,8.00
2022-09-04T17:35:44.641Z,6.30
2022-09-04T17:40:44.604Z,6.30
2022-09-04T17:42:41.872Z,6.50
2022-09-04T17:47:41.547Z,6.50
2022-09-04T17:52:41.546Z,6.30
2022-09-04T17:57:41.644Z,6.30
2022-09-04T18:02:41.695Z,7.00
2022-09-04T18:08:07.997Z,7.00
2022-09-04T18:17:41.733Z,7.10
2022-09-04T18:22:41.569Z,9.70
2022-09-04T18:37:11.569Z,7.50
2022-09-04T18:37:47.000Z,7.50
2022-09-04T18:50:21.324Z,7.90
2022-09-04T18:50:39.225Z,7.90
2022-09-04T18:52:41.575Z,9.90
2022-09-04T18:57:44.563Z,9.90
2022-09-04T19:02:41.803Z,8.30
2022-09-04T19:07:41.741Z,8.30
2022-09-04T19:12:47.373Z,8.50
2022-09-04T19:17:41.789Z,8.50
2022-09-04T19:22:41.771Z,7.80
2022-09-04T19:27:41.743Z,7.80
2022-09-04T19:32:41.771Z,8.70
2022-09-04T19:42:54.335Z,8.70
2022-09-04T19:46:03.653Z,7.60
2022-09-04T19:47:41.841Z,7.60
2022-09-04T19:53:29.787Z,7.60
2022-09-04T19:57:41.789Z,7.60
2022-09-04T20:02:44.329Z,7.50
2022-09-04T20:07:41.827Z,7.50
2022-09-04T20:12:41.790Z,8.00
2022-09-04T20:17:41.789Z,8.00
2022-09-04T20:22:41.675Z,7.90
2022-09-04T20:27:41.632Z,7.90
2022-09-04T20:32:41.629Z,7.90
2022-09-04T20:37:41.634Z,7.90
2022-09-04T20:42:41.667Z,7.00
2022-09-04T20:52:52.242Z,7.00
2022-09-04T21:01:43.075Z,6.70
2022-09-04T21:03:17.246Z,7.10
2022-09-04T21:07:41.684Z,7.10
2022-09-04T21:12:41.675Z,8.90
2022-09-04T21:17:41.653Z,8.90
2022-09-04T21:22:41.642Z,7.80
2022-09-04T21:27:41.669Z,7.80
2022-09-04T21:32:41.621Z,6.80
2022-09-04T21:37:41.651Z,6.80
2022-09-04T21:42:41.664Z,7.10
2022-09-04T21:47:44.825Z,7.10
2022-09-04T21:52:41.712Z,9.80
2022-09-04T22:02:51.548Z,8.20
2022-09-04T22:11:10.835Z,8.20
2022-09-04T22:13:41.778Z,9.30
2022-09-04T22:17:41.689Z,9.30
2022-09-04T22:22:41.701Z,9.00
2022-09-04T22:28:08.442Z,9.00
2022-09-04T22:32:41.670Z,7.70
2022-09-04T22:37:41.710Z,7.70
2022-09-04T22:42:41.659Z,7.00
2022-09-04T22:47:41.682Z,7.00
2022-09-04T22:52:41.704Z,8.00
2022-09-04T22:57:44.945Z,8.00
2022-09-04T23:03:07.329Z,8.00
2022-09-04T23:13:44.261Z,8.00
2022-09-04T23:14:01.713Z,8.10
2022-09-04T23:17:58.300Z,8.10
2022-09-04T23:26:41.491Z,8.60
2022-09-04T23:27:41.709Z,8.60
2022-09-04T23:32:41.711Z,7.50
2022-09-04T23:37:41.707Z,7.50
2022-09-04T23:42:41.720Z,8.80
2022-09-04T23:47:48.500Z,8.80
2022-09-04T23:52:48.500Z,9.30
2022-09-04T23:57:41.752Z,9.30
